ノヴォシビルスク の空港の天気 - METARとTAF

トルマチェヴォ空港(ノヴォシビルスク) ( UNNT / OVB ) - ロシア ノヴォシビルスク
飛行場実況気象(Metar)
観測時間10/20 10:00 OMST (10/20 04:00 UTC)
風向・風速北北東 4m/s
視程10km以上
天気現象
全天を覆う雲 雲底高度 1520m
気温-4℃
湿度74%
気圧1027hPa
METARUNNT 200400Z 02004MPS 9999 OVC050CB M04/M08 Q1027 R25/150065 R34/150065 NOSIG RMK QFE760/1014
過去の天気等 Google飛行場航空写真 Wunderground天気予報

過去48時間のMETAR

飛行場予報(TAF)
発表時間: 10/20 08:00 OMST (10/20 02:00 UTC)
予報対象時間: 20日9時 OMST ~ 21日9時 OMST
風向・風速北 3m/s 瞬間風速 8m/s
視程10km以上
全天の8割程度の積乱雲 雲底高度 1220m
20日9時 OMST ~ 20日15時 OMST に一時的に
視程3100m
天気現象弱いしゅう雪
全天の8割程度の積乱雲 雲底高度 340m
TAF UNNT 200200Z 2003/2103 36003G08MPS 9999 BKN040CB
TEMPO 2003/2009 3100 -SHSN BKN011CB